John James Audubon — WDE8037 — position and weather

sailwx.info

Track history (hours):
 
Tides and Currents Weather Stations Pressure Air Temp Water Temp Dewpoint Dewpoint Depression Visibility Wind Speed Wind Dir Waves Ship Positions

John James Audubon

Owner: Statue Cruises, Jersey City, NJ. More information available from US FCC via Universal Licensing System and Coast Guard Vessel Documentation Center.

Last reported at 2018-Jul-21 11:30 UTC. Time now 2018-Jul-21 11:26 UTC.
Position N 40°44' W 074°01'.

Length 34 m.

Type: Passenger vessel. MMSI: 367400770.

Date/timePositionNaut miles runAvg speedWind from/ knotsBaromVisibWave heightAir tempDewpointWater temp
2018-Jul-21 11:30N 40°44' W 074°01'0 0.0
2018-Jul-21 02:27N 40°44' W 074°01'1 1.5
2018-Jul-21 02:00N 40°44' W 074°01'2 4.8
2018-Jul-21 01:30N 40°42' W 074°02'1 1.8
2018-Jul-21 01:00N 40°42' W 074°01'0 0.6
2018-Jul-21 00:30N 40°42' W 074°01'4 7.2
2018-Jul-21 00:00N 40°46' W 074°01'2 3.6
2018-Jul-20 23:30N 40°44' W 074°01'0 0.0
2018-Jul-20 23:00N 40°44' W 074°01'0 0.0
2018-Jul-20 22:30N 40°44' W 074°01'0 0.0
2018-Jul-20 22:00N 40°44' W 074°01'0 0.0
2018-Jul-20 21:30N 40°44' W 074°01'0 0.0
2018-Jul-20 21:00N 40°44' W 074°01'1 1.2
2018-Jul-20 20:30N 40°43' W 074°01'1 2.5
2018-Jul-20 20:01N 40°42' W 074°00'0 0.4
2018-Jul-20 19:31N 40°42' W 073°60'2 3.6
2018-Jul-20 19:01N 40°42' W 074°02'2 3.3
2018-Jul-20 18:31N 40°42' W 074°00'1 1.0
2018-Jul-20 18:00N 40°42' W 073°60'2 4.9
2018-Jul-20 17:31N 40°41' W 074°02'2 3.8
2018-Jul-20 17:00N 40°42' W 074°00'0 0.5
2018-Jul-20 16:30N 40°42' W 073°60'2 4.2
2018-Jul-20 16:00N 40°41' W 074°02'2 3.8
2018-Jul-20 15:30N 40°42' W 074°00'0 0.2
2018-Jul-20 15:01N 40°42' W 074°00'2 4.0
2018-Jul-20 14:31N 40°41' W 074°02'2 4.0
2018-Jul-20 14:00N 40°42' W 074°00'0 0.0
2018-Jul-20 13:31N 40°42' W 074°00'0 0.0
2018-Jul-20 13:01N 40°42' W 074°00'0 0.0
2018-Jul-19 22:23N 40°42' W 074°00'0 0.0
2018-Jul-19 21:59N 40°42' W 074°00'1 3.0
2018-Jul-19 21:30N 40°42' W 074°02'1 2.9
2018-Jul-19 21:00N 40°42' W 074°00'0 0.0
2018-Jul-19 20:30N 40°42' W 074°00'2 3.1
2018-Jul-19 20:00N 40°42' W 074°02'2 3.1
2018-Jul-19 19:30N 40°42' W 074°00'0 0.0
2018-Jul-19 19:00N 40°42' W 074°00'2 3.7
2018-Jul-19 18:30N 40°41' W 074°02'2 3.8
2018-Jul-19 18:00N 40°42' W 074°00'0 0.0
2018-Jul-19 17:30N 40°42' W 074°00'2 4.0
2018-Jul-19 17:00N 40°41' W 074°02'2 4.0
2018-Jul-19 16:30N 40°42' W 074°00'0 0.0
2018-Jul-19 16:00N 40°42' W 074°00'2 3.3
2018-Jul-19 15:30N 40°41' W 074°02'2 3.3
2018-Jul-19 15:00N 40°42' W 074°00'0 0.0
2018-Jul-19 14:29N 40°42' W 074°00'0 0.0
2018-Jul-19 13:30N 40°42' W 074°00'0 0.0
2018-Jul-18 22:05N 40°42' W 074°00'0 0.1
2018-Jul-18 22:00N 40°42' W 074°00'2 3.9
2018-Jul-18 21:30N 40°41' W 074°02'2 3.8
2018-Jul-18 21:00N 40°42' W 074°00'0 0.0
2018-Jul-18 20:30N 40°42' W 074°00'2 3.6
2018-Jul-18 20:00N 40°41' W 074°02'2 3.5
2018-Jul-18 19:30N 40°42' W 074°00'0 0.0
2018-Jul-18 19:00N 40°42' W 074°00'2 4.2
2018-Jul-18 18:30N 40°41' W 074°03'2 4.2
2018-Jul-18 18:00N 40°42' W 074°00'0 0.0
2018-Jul-18 17:30N 40°42' W 074°00'2 4.1
2018-Jul-18 17:00N 40°41' W 074°03'2 4.1
2018-Jul-18 16:30N 40°42' W 074°00'0 0.0
2018-Jul-18 16:00N 40°42' W 074°00'2 4.0
2018-Jul-18 15:30N 40°41' W 074°02'2 3.8
2018-Jul-18 14:59N 40°42' W 074°00'0 0.0
2018-Jul-18 14:30N 40°42' W 074°00'0 0.0
2018-Jul-18 13:30N 40°42' W 074°00'0 0.0
2018-Jul-18 13:01N 40°42' W 074°00'2 0.1
2018-Jul-17 20:13N 40°44' W 074°01'0 0.1
2018-Jul-17 20:00N 40°44' W 074°01'2 3.3
2018-Jul-17 19:30N 40°42' W 074°00'2 3.1
2018-Jul-17 19:00N 40°41' W 074°02'2 3.1
2018-Jul-17 18:30N 40°42' W 074°00'0 0.0
2018-Jul-17 18:00N 40°42' W 074°00'2 4.1
2018-Jul-17 17:30N 40°41' W 074°03'2 4.2
2018-Jul-17 17:00N 40°42' W 074°00'0 0.0
2018-Jul-17 16:30N 40°42' W 074°00'2 4.2
2018-Jul-17 16:00N 40°41' W 074°03'2 3.7
2018-Jul-17 15:26N 40°42' W 074°00'0 0.0
2018-Jul-17 14:57N 40°42' W 074°00'2 4.5
2018-Jul-17 14:30N 40°41' W 074°02'2 4.0
2018-Jul-17 14:00N 40°42' W 074°00'0 0.0
2018-Jul-17 13:30N 40°42' W 074°00'1 1.5
2018-Jul-17 13:00N 40°42' W 074°01'2 3.6
2018-Jul-17 12:30N 40°44' W 074°01'0 0.0
2018-Jul-16 22:59N 40°44' W 074°01'2 3.9
2018-Jul-16 22:30N 40°42' W 074°01'1 1.3
2018-Jul-16 22:00N 40°42' W 074°00'2 3.6
2018-Jul-16 21:30N 40°41' W 074°02'2 3.6
2018-Jul-16 21:00N 40°42' W 074°00'0 0.0
2018-Jul-16 20:30N 40°42' W 074°00'2 3.4
2018-Jul-16 20:00N 40°41' W 074°02'2 3.3
2018-Jul-16 19:29N 40°42' W 074°00'0 0.0
2018-Jul-16 19:00N 40°42' W 074°00'2 3.2
2018-Jul-16 18:30N 40°42' W 074°02'2 3.2
2018-Jul-16 18:00N 40°42' W 074°00'0 0.0
2018-Jul-16 17:30N 40°42' W 074°00'2 3.7
2018-Jul-16 17:00N 40°41' W 074°02'2 3.7
2018-Jul-16 16:30N 40°42' W 074°00'0 0.0
2018-Jul-16 16:00N 40°42' W 074°00'2 3.8
2018-Jul-16 15:30N 40°41' W 074°02'2 3.8
2018-Jul-16 15:00N 40°42' W 074°00'0 0.0
2018-Jul-16 14:30N 40°42' W 074°00'2 4.0
2018-Jul-16 14:00N 40°41' W 074°03'2 4.0
2018-Jul-16 13:30N 40°42' W 074°00'0 0.0
2018-Jul-16 13:00N 40°42' W 074°00'2 3.5
2018-Jul-16 12:30N 40°43' W 074°02'0 0.0
2018-Jul-16 12:00N 40°43' W 074°02'2 3.5
2018-Jul-16 11:30N 40°44' W 074°01'0 0.0
2018-Jul-16 02:00N 40°44' W 074°01'1 3.0
2018-Jul-16 01:30N 40°43' W 074°02'1 1.8
2018-Jul-16 01:00N 40°42' W 074°01'1 1.2
2018-Jul-16 00:30N 40°42' W 074°01'4 7.1
2018-Jul-16 00:00N 40°46' W 074°00'2 4.1
2018-Jul-15 23:30N 40°44' W 074°01'0 0.0
2018-Jul-15 23:00N 40°44' W 074°01'0 0.0
2018-Jul-15 22:30N 40°44' W 074°01'0 0.0
2018-Jul-15 22:00N 40°44' W 074°01'0 0.0
2018-Jul-15 21:30N 40°44' W 074°01'0 0.0
2018-Jul-15 21:00N 40°44' W 074°01'0 0.0
2018-Jul-15 05:11N 40°44' W 074°01'0 0.8
2018-Jul-15 05:00N 40°44' W 074°01'2 3.3
2018-Jul-15 04:30N 40°42' W 074°00'0 0.0
2018-Jul-15 04:00N 40°42' W 074°00'0 0.7
2018-Jul-15 03:30N 40°42' W 073°60'2 4.5
2018-Jul-15 03:00N 40°41' W 074°02'3 6.4
2018-Jul-15 02:30N 40°44' W 074°01'2 4.1
2018-Jul-15 01:57N 40°46' W 074°00'3 6.2
2018-Jul-15 01:30N 40°44' W 074°01'2 3.7
2018-Jul-15 01:00N 40°42' W 074°00'0 0.4
2018-Jul-15 00:30N 40°42' W 074°00'0 0.0
2018-Jul-15 00:00N 40°42' W 074°00'0 0.0
2018-Jul-14 23:30N 40°42' W 074°00'0 0.0
2018-Jul-14 23:00N 40°42' W 074°00'0 0.0
2018-Jul-14 22:30N 40°42' W 074°00'0 0.0
2018-Jul-14 22:00N 40°42' W 074°00'2 3.5
2018-Jul-14 21:30N 40°41' W 074°02'2 3.5
2018-Jul-14 21:00N 40°42' W 074°00'0 0.0
2018-Jul-14 20:30N 40°42' W 074°00'2 3.5
2018-Jul-14 20:00N 40°41' W 074°02'2 3.5
2018-Jul-14 19:30N 40°42' W 074°00'0 0.0
2018-Jul-14 19:00N 40°42' W 074°00'2 3.4
2018-Jul-14 18:30N 40°41' W 074°02'2 3.4
2018-Jul-14 18:00N 40°42' W 074°00'0 0.0
2018-Jul-14 17:30N 40°42' W 074°00'2 3.9
2018-Jul-14 17:00N 40°41' W 074°02'2 3.9
2018-Jul-14 16:30N 40°42' W 074°00'0 0.0
2018-Jul-14 16:00N 40°42' W 074°00'2 3.7
2018-Jul-14 15:30N 40°41' W 074°02'2 3.7
2018-Jul-14 15:00N 40°42' W 074°00'2 2.1
2018-Jul-14 14:00N 40°41' W 074°03'2 4.2
2018-Jul-14 13:30N 40°42' W 074°00'0 0.0
2018-Jul-13 21:56N 40°42' W 074°00'2 4.2
2018-Jul-13 21:30N 40°41' W 074°02'2 3.6
2018-Jul-13 21:00N 40°42' W 074°00'0 0.0
2018-Jul-13 20:30N 40°42' W 074°00'2 3.7
2018-Jul-13 20:00N 40°41' W 074°02'2 3.6
2018-Jul-13 19:30N 40°42' W 074°00'0 0.0
2018-Jul-13 19:00N 40°42' W 074°00'2 3.2
2018-Jul-13 18:30N 40°41' W 074°02'2 3.1
2018-Jul-13 17:59N 40°42' W 074°00'0 0.0
2018-Jul-13 17:30N 40°42' W 074°00'2 3.8
2018-Jul-13 17:00N 40°41' W 074°02'2 3.8
2018-Jul-13 16:30N 40°42' W 074°00'0 0.0
2018-Jul-13 16:00N 40°42' W 074°00'2 4.1
2018-Jul-13 15:30N 40°41' W 074°02'2 4.1
2018-Jul-13 15:00N 40°42' W 074°00'2 2.0
2018-Jul-13 14:00N 40°41' W 074°03'2 4.1
2018-Jul-13 13:30N 40°42' W 074°00'0 0.0
2018-Jul-12 22:10N 40°42' W 074°00'0 0.0
2018-Jul-12 22:00N 40°42' W 074°00'2 3.0
2018-Jul-12 21:30N 40°42' W 074°02'2 3.0
2018-Jul-12 21:00N 40°42' W 074°00'0 0.0
2018-Jul-12 20:30N 40°42' W 074°00'2 3.1
2018-Jul-12 20:00N 40°41' W 074°02'2 3.1
2018-Jul-12 19:30N 40°42' W 074°00'0 0.0
2018-Jul-12 19:00N 40°42' W 074°00'1 2.9
2018-Jul-12 18:30N 40°41' W 074°02'1 2.8
2018-Jul-12 18:00N 40°42' W 074°00'0 0.0
2018-Jul-12 17:30N 40°42' W 074°00'1 2.2
2018-Jul-12 17:00N 40°42' W 074°01'1 2.3
2018-Jul-12 16:30N 40°42' W 074°00'0 0.0
2018-Jul-12 16:00N 40°42' W 074°00'2 4.1
2018-Jul-12 15:30N 40°41' W 074°03'2 4.2
2018-Jul-12 15:00N 40°42' W 074°00'0 0.0
2018-Jul-12 14:30N 40°42' W 074°00'2 3.5
2018-Jul-12 14:00N 40°42' W 074°02'2 3.4
2018-Jul-12 13:29N 40°42' W 074°00'0 0.0
2018-Jul-12 13:00N 40°42' W 074°00'0 0.4
2018-Jul-12 12:30N 40°42' W 074°00'2 3.4
2018-Jul-12 12:00N 40°43' W 074°02'2 3.5
2018-Jul-12 11:30N 40°42' W 074°00'0 0.0
2018-Jul-11 22:20N 40°42' W 074°00'0 0.0
2018-Jul-11 22:00N 40°42' W 074°00'0 0.0
2018-Jul-11 20:53N 40°42' W 074°00'0 0.0
2018-Jul-11 20:30N 40°42' W 074°00'2 3.7
2018-Jul-11 20:00N 40°41' W 074°02'2 3.7
2018-Jul-11 19:30N 40°42' W 074°00'0 0.0
2018-Jul-11 19:00N 40°42' W 074°00'2 3.4
2018-Jul-11 18:30N 40°41' W 074°02'2 3.3
2018-Jul-11 18:00N 40°42' W 074°00'0 0.0
2018-Jul-11 17:30N 40°42' W 074°00'1 2.4
2018-Jul-11 17:00N 40°42' W 074°01'1 2.4
2018-Jul-11 16:30N 40°42' W 074°00'0 0.0
2018-Jul-11 15:54N 40°42' W 074°00'2 4.8
2018-Jul-11 15:29N 40°41' W 074°02'2 2.7
2018-Jul-11 14:44N 40°42' W 074°00'0 0.1
2018-Jul-11 14:22N 40°42' W 074°00'2 5.8
2018-Jul-11 14:00N 40°41' W 074°03'3 0.3
2018-Jul-11 02:58N 40°44' W 074°01'2 3.2
2018-Jul-11 02:30N 40°42' W 074°02'  
Track history (hours):
 
Tides and Currents Weather Stations Pressure Air Temp Water Temp Dewpoint Dewpoint Depression Visibility Wind Speed Wind Dir Waves Ship Positions

John James Audubon

Owner: Statue Cruises, Jersey City, NJ. More information available from US FCC via Universal Licensing System and Coast Guard Vessel Documentation Center.

Last reported at 2018-Jul-21 11:30 UTC. Time now 2018-Jul-21 11:26 UTC.
Position N 40°44' W 074°01'.

Length 34 m.

Type: Passenger vessel. MMSI: 367400770.

Date/timePositionNaut miles runAvg speedWind from/ knotsBaromVisibWave heightAir tempDewpointWater temp
2018-Jul-21 11:30N 40°44' W 074°01'0 0.0
2018-Jul-21 02:27N 40°44' W 074°01'1 1.5
2018-Jul-21 02:00N 40°44' W 074°01'2 4.8
2018-Jul-21 01:30N 40°42' W 074°02'1 1.8
2018-Jul-21 01:00N 40°42' W 074°01'0 0.6
2018-Jul-21 00:30N 40°42' W 074°01'4 7.2
2018-Jul-21 00:00N 40°46' W 074°01'2 3.6
2018-Jul-20 23:30N 40°44' W 074°01'0 0.0
2018-Jul-20 23:00N 40°44' W 074°01'0 0.0
2018-Jul-20 22:30N 40°44' W 074°01'0 0.0
2018-Jul-20 22:00N 40°44' W 074°01'0 0.0
2018-Jul-20 21:30N 40°44' W 074°01'0 0.0
2018-Jul-20 21:00N 40°44' W 074°01'1 1.2
2018-Jul-20 20:30N 40°43' W 074°01'1 2.5
2018-Jul-20 20:01N 40°42' W 074°00'0 0.4
2018-Jul-20 19:31N 40°42' W 073°60'2 3.6
2018-Jul-20 19:01N 40°42' W 074°02'2 3.3
2018-Jul-20 18:31N 40°42' W 074°00'1 1.0
2018-Jul-20 18:00N 40°42' W 073°60'2 4.9
2018-Jul-20 17:31N 40°41' W 074°02'2 3.8
2018-Jul-20 17:00N 40°42' W 074°00'0 0.5
2018-Jul-20 16:30N 40°42' W 073°60'2 4.2
2018-Jul-20 16:00N 40°41' W 074°02'2 3.8
2018-Jul-20 15:30N 40°42' W 074°00'0 0.2
2018-Jul-20 15:01N 40°42' W 074°00'2 4.0
2018-Jul-20 14:31N 40°41' W 074°02'2 4.0
2018-Jul-20 14:00N 40°42' W 074°00'0 0.0
2018-Jul-20 13:31N 40°42' W 074°00'0 0.0
2018-Jul-20 13:01N 40°42' W 074°00'0 0.0
2018-Jul-19 22:23N 40°42' W 074°00'0 0.0
2018-Jul-19 21:59N 40°42' W 074°00'1 3.0
2018-Jul-19 21:30N 40°42' W 074°02'1 2.9
2018-Jul-19 21:00N 40°42' W 074°00'0 0.0
2018-Jul-19 20:30N 40°42' W 074°00'2 3.1
2018-Jul-19 20:00N 40°42' W 074°02'2 3.1
2018-Jul-19 19:30N 40°42' W 074°00'0 0.0
2018-Jul-19 19:00N 40°42' W 074°00'2 3.7
2018-Jul-19 18:30N 40°41' W 074°02'2 3.8
2018-Jul-19 18:00N 40°42' W 074°00'0 0.0
2018-Jul-19 17:30N 40°42' W 074°00'2 4.0
2018-Jul-19 17:00N 40°41' W 074°02'2 4.0
2018-Jul-19 16:30N 40°42' W 074°00'0 0.0
2018-Jul-19 16:00N 40°42' W 074°00'2 3.3
2018-Jul-19 15:30N 40°41' W 074°02'2 3.3
2018-Jul-19 15:00N 40°42' W 074°00'0 0.0
2018-Jul-19 14:29N 40°42' W 074°00'0 0.0
2018-Jul-19 13:30N 40°42' W 074°00'0 0.0
2018-Jul-18 22:05N 40°42' W 074°00'0 0.1
2018-Jul-18 22:00N 40°42' W 074°00'2 3.9
2018-Jul-18 21:30N 40°41' W 074°02'2 3.8
2018-Jul-18 21:00N 40°42' W 074°00'0 0.0
2018-Jul-18 20:30N 40°42' W 074°00'2 3.6
2018-Jul-18 20:00N 40°41' W 074°02'2 3.5
2018-Jul-18 19:30N 40°42' W 074°00'0 0.0
2018-Jul-18 19:00N 40°42' W 074°00'2 4.2
2018-Jul-18 18:30N 40°41' W 074°03'2 4.2
2018-Jul-18 18:00N 40°42' W 074°00'0 0.0
2018-Jul-18 17:30N 40°42' W 074°00'2 4.1
2018-Jul-18 17:00N 40°41' W 074°03'2 4.1
2018-Jul-18 16:30N 40°42' W 074°00'0 0.0
2018-Jul-18 16:00N 40°42' W 074°00'2 4.0
2018-Jul-18 15:30N 40°41' W 074°02'2 3.8
2018-Jul-18 14:59N 40°42' W 074°00'0 0.0
2018-Jul-18 14:30N 40°42' W 074°00'0 0.0
2018-Jul-18 13:30N 40°42' W 074°00'0 0.0
2018-Jul-18 13:01N 40°42' W 074°00'2 0.1
2018-Jul-17 20:13N 40°44' W 074°01'0 0.1
2018-Jul-17 20:00N 40°44' W 074°01'2 3.3
2018-Jul-17 19:30N 40°42' W 074°00'2 3.1
2018-Jul-17 19:00N 40°41' W 074°02'2 3.1
2018-Jul-17 18:30N 40°42' W 074°00'0 0.0
2018-Jul-17 18:00N 40°42' W 074°00'2 4.1
2018-Jul-17 17:30N 40°41' W 074°03'2 4.2
2018-Jul-17 17:00N 40°42' W 074°00'0 0.0
2018-Jul-17 16:30N 40°42' W 074°00'2 4.2
2018-Jul-17 16:00N 40°41' W 074°03'2 3.7
2018-Jul-17 15:26N 40°42' W 074°00'0 0.0
2018-Jul-17 14:57N 40°42' W 074°00'2 4.5
2018-Jul-17 14:30N 40°41' W 074°02'2 4.0
2018-Jul-17 14:00N 40°42' W 074°00'0 0.0
2018-Jul-17 13:30N 40°42' W 074°00'1 1.5
2018-Jul-17 13:00N 40°42' W 074°01'2 3.6
2018-Jul-17 12:30N 40°44' W 074°01'0 0.0
2018-Jul-16 22:59N 40°44' W 074°01'2 3.9
2018-Jul-16 22:30N 40°42' W 074°01'1 1.3
2018-Jul-16 22:00N 40°42' W 074°00'2 3.6
2018-Jul-16 21:30N 40°41' W 074°02'2 3.6
2018-Jul-16 21:00N 40°42' W 074°00'0 0.0
2018-Jul-16 20:30N 40°42' W 074°00'2 3.4
2018-Jul-16 20:00N 40°41' W 074°02'2 3.3
2018-Jul-16 19:29N 40°42' W 074°00'0 0.0
2018-Jul-16 19:00N 40°42' W 074°00'2 3.2
2018-Jul-16 18:30N 40°42' W 074°02'2 3.2
2018-Jul-16 18:00N 40°42' W 074°00'0 0.0
2018-Jul-16 17:30N 40°42' W 074°00'2 3.7
2018-Jul-16 17:00N 40°41' W 074°02'2 3.7
2018-Jul-16 16:30N 40°42' W 074°00'0 0.0
2018-Jul-16 16:00N 40°42' W 074°00'2 3.8
2018-Jul-16 15:30N 40°41' W 074°02'2 3.8
2018-Jul-16 15:00N 40°42' W 074°00'0 0.0
2018-Jul-16 14:30N 40°42' W 074°00'2 4.0
2018-Jul-16 14:00N 40°41' W 074°03'2 4.0
2018-Jul-16 13:30N 40°42' W 074°00'0 0.0
2018-Jul-16 13:00N 40°42' W 074°00'2 3.5
2018-Jul-16 12:30N 40°43' W 074°02'0 0.0
2018-Jul-16 12:00N 40°43' W 074°02'2 3.5
2018-Jul-16 11:30N 40°44' W 074°01'0 0.0
2018-Jul-16 02:00N 40°44' W 074°01'1 3.0
2018-Jul-16 01:30N 40°43' W 074°02'1 1.8
2018-Jul-16 01:00N 40°42' W 074°01'1 1.2
2018-Jul-16 00:30N 40°42' W 074°01'4 7.1
2018-Jul-16 00:00N 40°46' W 074°00'2 4.1
2018-Jul-15 23:30N 40°44' W 074°01'0 0.0
2018-Jul-15 23:00N 40°44' W 074°01'0 0.0
2018-Jul-15 22:30N 40°44' W 074°01'0 0.0
2018-Jul-15 22:00N 40°44' W 074°01'0 0.0
2018-Jul-15 21:30N 40°44' W 074°01'0 0.0
2018-Jul-15 21:00N 40°44' W 074°01'0 0.0
2018-Jul-15 05:11N 40°44' W 074°01'0 0.8
2018-Jul-15 05:00N 40°44' W 074°01'2 3.3
2018-Jul-15 04:30N 40°42' W 074°00'0 0.0
2018-Jul-15 04:00N 40°42' W 074°00'0 0.7
2018-Jul-15 03:30N 40°42' W 073°60'2 4.5
2018-Jul-15 03:00N 40°41' W 074°02'3 6.4
2018-Jul-15 02:30N 40°44' W 074°01'2 4.1
2018-Jul-15 01:57N 40°46' W 074°00'3 6.2
2018-Jul-15 01:30N 40°44' W 074°01'2 3.7
2018-Jul-15 01:00N 40°42' W 074°00'0 0.4
2018-Jul-15 00:30N 40°42' W 074°00'0 0.0
2018-Jul-15 00:00N 40°42' W 074°00'0 0.0
2018-Jul-14 23:30N 40°42' W 074°00'0 0.0
2018-Jul-14 23:00N 40°42' W 074°00'0 0.0
2018-Jul-14 22:30N 40°42' W 074°00'0 0.0
2018-Jul-14 22:00N 40°42' W 074°00'2 3.5
2018-Jul-14 21:30N 40°41' W 074°02'2 3.5
2018-Jul-14 21:00N 40°42' W 074°00'0 0.0
2018-Jul-14 20:30N 40°42' W 074°00'2 3.5
2018-Jul-14 20:00N 40°41' W 074°02'2 3.5
2018-Jul-14 19:30N 40°42' W 074°00'0 0.0
2018-Jul-14 19:00N 40°42' W 074°00'2 3.4
2018-Jul-14 18:30N 40°41' W 074°02'2 3.4
2018-Jul-14 18:00N 40°42' W 074°00'0 0.0
2018-Jul-14 17:30N 40°42' W 074°00'2 3.9
2018-Jul-14 17:00N 40°41' W 074°02'2 3.9
2018-Jul-14 16:30N 40°42' W 074°00'0 0.0
2018-Jul-14 16:00N 40°42' W 074°00'2 3.7
2018-Jul-14 15:30N 40°41' W 074°02'2 3.7
2018-Jul-14 15:00N 40°42' W 074°00'2 2.1
2018-Jul-14 14:00N 40°41' W 074°03'2 4.2
2018-Jul-14 13:30N 40°42' W 074°00'0 0.0
2018-Jul-13 21:56N 40°42' W 074°00'2 4.2
2018-Jul-13 21:30N 40°41' W 074°02'2 3.6
2018-Jul-13 21:00N 40°42' W 074°00'0 0.0
2018-Jul-13 20:30N 40°42' W 074°00'2 3.7
2018-Jul-13 20:00N 40°41' W 074°02'2 3.6
2018-Jul-13 19:30N 40°42' W 074°00'0 0.0
2018-Jul-13 19:00N 40°42' W 074°00'2 3.2
2018-Jul-13 18:30N 40°41' W 074°02'2 3.1
2018-Jul-13 17:59N 40°42' W 074°00'0 0.0
2018-Jul-13 17:30N 40°42' W 074°00'2 3.8
2018-Jul-13 17:00N 40°41' W 074°02'2 3.8
2018-Jul-13 16:30N 40°42' W 074°00'0 0.0
2018-Jul-13 16:00N 40°42' W 074°00'2 4.1
2018-Jul-13 15:30N 40°41' W 074°02'2 4.1
2018-Jul-13 15:00N 40°42' W 074°00'2 2.0
2018-Jul-13 14:00N 40°41' W 074°03'2 4.1
2018-Jul-13 13:30N 40°42' W 074°00'0 0.0
2018-Jul-12 22:10N 40°42' W 074°00'0 0.0
2018-Jul-12 22:00N 40°42' W 074°00'2 3.0
2018-Jul-12 21:30N 40°42' W 074°02'2 3.0
2018-Jul-12 21:00N 40°42' W 074°00'0 0.0
2018-Jul-12 20:30N 40°42' W 074°00'2 3.1
2018-Jul-12 20:00N 40°41' W 074°02'2 3.1
2018-Jul-12 19:30N 40°42' W 074°00'0 0.0
2018-Jul-12 19:00N 40°42' W 074°00'1 2.9
2018-Jul-12 18:30N 40°41' W 074°02'1 2.8
2018-Jul-12 18:00N 40°42' W 074°00'0 0.0
2018-Jul-12 17:30N 40°42' W 074°00'1 2.2
2018-Jul-12 17:00N 40°42' W 074°01'1 2.3
2018-Jul-12 16:30N 40°42' W 074°00'0 0.0
2018-Jul-12 16:00N 40°42' W 074°00'2 4.1
2018-Jul-12 15:30N 40°41' W 074°03'2 4.2
2018-Jul-12 15:00N 40°42' W 074°00'0 0.0
2018-Jul-12 14:30N 40°42' W 074°00'2 3.5
2018-Jul-12 14:00N 40°42' W 074°02'2 3.4
2018-Jul-12 13:29N 40°42' W 074°00'0 0.0
2018-Jul-12 13:00N 40°42' W 074°00'0 0.4
2018-Jul-12 12:30N 40°42' W 074°00'2 3.4
2018-Jul-12 12:00N 40°43' W 074°02'2 3.5
2018-Jul-12 11:30N 40°42' W 074°00'0 0.0
2018-Jul-11 22:20N 40°42' W 074°00'0 0.0
2018-Jul-11 22:00N 40°42' W 074°00'0 0.0
2018-Jul-11 20:53N 40°42' W 074°00'0 0.0
2018-Jul-11 20:30N 40°42' W 074°00'2 3.7
2018-Jul-11 20:00N 40°41' W 074°02'2 3.7
2018-Jul-11 19:30N 40°42' W 074°00'0 0.0
2018-Jul-11 19:00N 40°42' W 074°00'2 3.4
2018-Jul-11 18:30N 40°41' W 074°02'2 3.3
2018-Jul-11 18:00N 40°42' W 074°00'0 0.0
2018-Jul-11 17:30N 40°42' W 074°00'1 2.4
2018-Jul-11 17:00N 40°42' W 074°01'1 2.4
2018-Jul-11 16:30N 40°42' W 074°00'0 0.0
2018-Jul-11 15:54N 40°42' W 074°00'2 4.8
2018-Jul-11 15:29N 40°41' W 074°02'2 2.7
2018-Jul-11 14:44N 40°42' W 074°00'0 0.1
2018-Jul-11 14:22N 40°42' W 074°00'2 5.8
2018-Jul-11 14:00N 40°41' W 074°03'3 0.3
2018-Jul-11 02:58N 40°44' W 074°01'2 3.2
2018-Jul-11 02:30N 40°42' W 074°02'  

Dump ship's entire track history